createdAt,value
2023-06-09T00:00:00.745Z,14.1
2023-06-09T00:01:00.715Z,14.1
2023-06-09T00:02:00.760Z,14
2023-06-09T00:03:04.602Z,14
2023-06-09T00:04:00.880Z,14
2023-06-09T00:05:00.756Z,14.1
2023-06-09T00:06:00.733Z,14.1
2023-06-09T00:07:00.724Z,14.1
2023-06-09T00:08:00.738Z,14.1
2023-06-09T00:09:00.732Z,14.1
2023-06-09T00:10:00.732Z,14.1
2023-06-09T00:11:00.730Z,14.1
2023-06-09T00:12:00.763Z,14.1
2023-06-09T00:13:00.729Z,14
2023-06-09T00:14:00.738Z,14
2023-06-09T00:15:00.748Z,13.9
2023-06-09T00:16:00.741Z,13.9
2023-06-09T00:17:00.759Z,13.9
2023-06-09T00:18:00.808Z,13.9
2023-06-09T00:19:00.750Z,13.9
2023-06-09T00:20:00.758Z,13.9
2023-06-09T00:21:00.743Z,13.9
2023-06-09T00:22:00.766Z,14
2023-06-09T00:23:00.741Z,14
2023-06-09T00:24:00.788Z,14
2023-06-09T00:25:00.750Z,14
2023-06-09T00:26:00.743Z,14
2023-06-09T00:27:00.764Z,14.1
2023-06-09T00:28:00.764Z,14.1
2023-06-09T00:29:00.748Z,14
2023-06-09T00:30:00.748Z,14.1
2023-06-09T00:31:00.794Z,14.1
2023-06-09T00:32:00.747Z,14.1
2023-06-09T00:33:00.926Z,14.1
2023-06-09T00:34:00.749Z,14.1
2023-06-09T00:35:00.748Z,14
2023-06-09T00:36:00.790Z,13.9
2023-06-09T00:37:00.750Z,13.9
2023-06-09T00:38:00.751Z,13.9
2023-06-09T00:39:00.757Z,13.9
2023-06-09T00:40:00.761Z,13.9
2023-06-09T00:41:00.753Z,13.9
2023-06-09T00:42:00.765Z,13.9
2023-06-09T00:43:00.819Z,13.9
2023-06-09T00:44:00.785Z,13.9
2023-06-09T00:45:00.765Z,13.9
2023-06-09T00:46:00.788Z,13.9
2023-06-09T00:47:00.921Z,13.9
2023-06-09T00:48:00.853Z,13.9
2023-06-09T00:49:00.805Z,13.9
2023-06-09T00:50:00.768Z,13.9
2023-06-09T00:51:00.792Z,13.9
2023-06-09T00:52:00.785Z,13.9
2023-06-09T00:53:00.770Z,13.8
2023-06-09T00:54:00.766Z,13.8
2023-06-09T00:55:00.770Z,13.8
2023-06-09T00:56:00.770Z,13.8
2023-06-09T00:57:00.779Z,13.7
2023-06-09T00:58:00.780Z,13.7
2023-06-09T00:59:00.805Z,13.7
2023-06-09T01:00:00.786Z,13.6
2023-06-09T01:01:00.843Z,13.7
2023-06-09T01:02:00.820Z,13.8
2023-06-09T01:03:00.836Z,13.8
2023-06-09T01:06:00.470Z,13.8
2023-06-09T01:07:00.487Z,13.8
2023-06-09T01:08:00.471Z,13.8
2023-06-09T01:09:00.471Z,13.8
2023-06-09T01:10:00.552Z,13.8
2023-06-09T01:11:00.468Z,13.8
2023-06-09T01:12:00.472Z,13.8
2023-06-09T01:13:00.521Z,13.8
2023-06-09T01:14:00.479Z,13.8
2023-06-09T01:15:00.482Z,13.8
2023-06-09T01:16:00.496Z,13.7
2023-06-09T01:17:00.605Z,13.6
2023-06-09T01:18:00.517Z,13.6
2023-06-09T01:19:00.492Z,13.6
2023-06-09T01:20:00.500Z,13.5
2023-06-09T01:21:00.490Z,13.5
2023-06-09T01:22:00.497Z,13.4
2023-06-09T01:23:00.504Z,13.4
2023-06-09T01:24:00.509Z,13.4
2023-06-09T01:25:00.487Z,13.4
2023-06-09T01:26:00.510Z,13.4
2023-06-09T01:27:00.510Z,13.4
2023-06-09T01:28:00.493Z,13.4
2023-06-09T01:29:00.525Z,13.4
2023-06-09T01:30:00.497Z,13.4
2023-06-09T01:31:00.499Z,13.4
2023-06-09T01:32:00.515Z,13.4
2023-06-09T01:33:00.614Z,13.3
2023-06-09T01:34:00.499Z,13.4
2023-06-09T01:35:00.521Z,13.4
2023-06-09T01:36:00.499Z,13.4
2023-06-09T01:37:00.511Z,13.4
2023-06-09T01:38:00.515Z,13.4
2023-06-09T01:39:00.521Z,13.4
2023-06-09T01:40:00.509Z,13.4
2023-06-09T01:41:00.530Z,13.4
2023-06-09T01:42:00.505Z,13.4
2023-06-09T01:43:00.544Z,13.4
2023-06-09T01:44:00.525Z,13.4
2023-06-09T01:45:00.515Z,13.4
2023-06-09T01:46:00.554Z,13.5
2023-06-09T01:47:00.510Z,13.5
2023-06-09T01:48:00.548Z,13.5
2023-06-09T01:49:00.522Z,13.5
2023-06-09T01:50:00.516Z,13.5
2023-06-09T01:51:00.514Z,13.5
2023-06-09T01:52:00.529Z,13.5
2023-06-09T01:53:00.518Z,13.4
2023-06-09T01:54:00.534Z,13.4
2023-06-09T01:55:00.535Z,13.4
2023-06-09T01:56:00.530Z,13.4
2023-06-09T01:57:00.525Z,13.4
2023-06-09T01:58:00.525Z,13.3
2023-06-09T01:59:00.526Z,13.3
2023-06-09T02:00:00.569Z,13.2
2023-06-09T02:01:01.273Z,13.2
2023-06-09T02:02:01.338Z,13.2
2023-06-09T02:03:01.286Z,13.2
2023-06-09T02:04:01.286Z,13.1
2023-06-09T02:05:01.324Z,13.1
2023-06-09T02:06:01.290Z,13.1
2023-06-09T02:07:01.265Z,13.1
2023-06-09T02:08:01.259Z,13.1
2023-06-09T02:09:01.303Z,13.1
2023-06-09T02:10:01.344Z,13.1
2023-06-09T02:11:01.285Z,13
2023-06-09T02:12:01.260Z,13
2023-06-09T02:13:01.282Z,13
2023-06-09T02:14:01.276Z,13
2023-06-09T02:15:01.273Z,13
2023-06-09T02:16:01.326Z,13
2023-06-09T02:17:01.276Z,13
2023-06-09T02:18:01.323Z,13
2023-06-09T02:19:01.306Z,13
2023-06-09T02:20:01.314Z,13
2023-06-09T02:21:01.263Z,13
2023-06-09T02:22:01.285Z,13
2023-06-09T02:23:01.270Z,13
2023-06-09T02:24:01.323Z,13
2023-06-09T02:25:01.284Z,13
2023-06-09T02:26:01.276Z,12.9
2023-06-09T02:27:01.265Z,12.9
2023-06-09T02:28:01.283Z,12.9
2023-06-09T02:29:00.253Z,12.9
2023-06-09T02:30:00.254Z,12.9
2023-06-09T02:31:00.361Z,12.9
2023-06-09T02:32:00.324Z,12.9
2023-06-09T02:33:00.342Z,12.9
2023-06-09T02:34:00.241Z,12.9
2023-06-09T02:35:00.281Z,12.9
2023-06-09T02:36:00.243Z,12.9
2023-06-09T02:37:00.248Z,12.9
2023-06-09T02:38:00.241Z,12.9
2023-06-09T02:39:00.242Z,12.9
2023-06-09T02:40:00.251Z,12.9
2023-06-09T02:41:00.257Z,12.9
2023-06-09T02:42:00.247Z,13
2023-06-09T02:43:00.273Z,12.9
2023-06-09T02:44:00.251Z,12.9
2023-06-09T02:45:00.268Z,13
2023-06-09T02:46:00.330Z,13
2023-06-09T02:47:00.258Z,13
2023-06-09T02:48:00.274Z,13
2023-06-09T02:49:00.274Z,13
2023-06-09T02:50:00.315Z,13.1
2023-06-09T02:51:00.261Z,13.1
2023-06-09T02:52:00.270Z,13.1
2023-06-09T02:53:00.289Z,13.1
2023-06-09T02:54:00.263Z,13.1
2023-06-09T02:55:00.267Z,13.1
2023-06-09T02:56:00.292Z,13.2
2023-06-09T02:57:00.268Z,13.2
2023-06-09T02:58:00.272Z,13.2
2023-06-09T02:59:00.277Z,13.1
2023-06-09T03:00:00.311Z,13.1
2023-06-09T03:01:00.334Z,13.1
2023-06-09T03:02:00.273Z,13
2023-06-09T03:03:00.382Z,13
2023-06-09T03:04:00.333Z,12.9
2023-06-09T03:05:00.312Z,12.9
2023-06-09T03:06:00.275Z,12.9
2023-06-09T03:07:00.277Z,12.9
2023-06-09T03:08:00.279Z,13
2023-06-09T03:09:00.293Z,13
2023-06-09T03:10:00.314Z,13
2023-06-09T03:11:00.279Z,13.1
2023-06-09T03:12:00.277Z,13.1
2023-06-09T03:13:00.283Z,13.1
2023-06-09T03:14:00.278Z,13.1
2023-06-09T03:15:00.289Z,13.1
2023-06-09T03:16:00.282Z,13.1
2023-06-09T03:17:00.300Z,13.1
2023-06-09T03:18:00.349Z,13.1
2023-06-09T03:19:00.288Z,13.1
2023-06-09T03:20:00.334Z,13.1
2023-06-09T03:21:00.296Z,13.1
2023-06-09T03:22:00.292Z,13.1
2023-06-09T03:23:00.290Z,13.1
2023-06-09T03:24:00.299Z,13.1
2023-06-09T03:25:00.296Z,13.1
2023-06-09T03:26:00.298Z,13.1
2023-06-09T03:27:00.296Z,13.1
2023-06-09T03:28:00.307Z,13
2023-06-09T03:29:00.307Z,13
2023-06-09T03:30:00.301Z,12.9
2023-06-09T03:31:00.333Z,13
2023-06-09T03:32:00.311Z,13
2023-06-09T03:33:00.335Z,12.9
2023-06-09T03:34:00.299Z,12.9
2023-06-09T03:35:00.311Z,13
2023-06-09T03:36:00.301Z,13
2023-06-09T03:37:00.312Z,13
2023-06-09T03:38:00.307Z,12.9
2023-06-09T03:39:00.311Z,12.9
2023-06-09T03:40:00.339Z,12.9
2023-06-09T03:41:00.355Z,12.9
2023-06-09T03:42:00.326Z,12.9
2023-06-09T03:43:00.349Z,12.9
2023-06-09T03:44:00.321Z,13
2023-06-09T03:45:00.314Z,12.9
2023-06-09T03:46:00.326Z,13
2023-06-09T03:47:00.511Z,13
2023-06-09T03:48:00.395Z,13
2023-06-09T03:49:00.319Z,13
2023-06-09T03:50:00.352Z,13.1
2023-06-09T03:51:00.382Z,13.1
2023-06-09T03:52:00.327Z,13.1
2023-06-09T03:53:00.320Z,13.1
2023-06-09T03:54:00.358Z,13.1
2023-06-09T03:55:00.329Z,13.1
2023-06-09T03:56:00.321Z,13.1
2023-06-09T03:57:00.328Z,13.1
2023-06-09T03:58:00.347Z,13.1
2023-06-09T03:59:00.331Z,13.1
2023-06-09T04:00:00.364Z,13.1
2023-06-09T04:01:00.336Z,13.1
2023-06-09T04:02:00.390Z,13.1
2023-06-09T04:03:00.405Z,13.1
2023-06-09T04:04:00.393Z,13.1
2023-06-09T04:05:00.345Z,13.1
2023-06-09T04:06:00.359Z,13.1
2023-06-09T04:07:00.426Z,13.1
2023-06-09T04:08:00.341Z,13
2023-06-09T04:09:00.365Z,13
2023-06-09T04:10:00.372Z,13
2023-06-09T04:11:00.353Z,13
2023-06-09T04:12:00.351Z,13
2023-06-09T04:13:00.355Z,12.9
2023-06-09T04:14:00.375Z,12.9
2023-06-09T04:15:00.384Z,12.9
2023-06-09T04:16:00.373Z,12.9
2023-06-09T04:17:00.386Z,12.9
2023-06-09T04:18:00.466Z,12.9
2023-06-09T04:19:00.357Z,12.9
2023-06-09T04:20:00.356Z,12.9
2023-06-09T04:21:00.378Z,12.9
2023-06-09T04:22:00.358Z,12.9
2023-06-09T04:23:00.364Z,12.9
2023-06-09T04:24:00.396Z,12.9
2023-06-09T04:25:00.367Z,12.9
2023-06-09T04:26:00.369Z,13
2023-06-09T04:27:00.384Z,13
2023-06-09T04:28:00.373Z,13
2023-06-09T04:29:00.369Z,13.1
2023-06-09T04:30:00.397Z,13.1
2023-06-09T04:31:00.386Z,13.1
2023-06-09T04:32:00.715Z,13.2
2023-06-09T04:33:00.487Z,13.2
2023-06-09T04:34:00.374Z,13.3
2023-06-09T04:35:00.378Z,13.4
2023-06-09T04:36:00.375Z,13.4
2023-06-09T04:37:00.435Z,13.5
2023-06-09T04:38:03.493Z,13.6
2023-06-09T04:39:00.378Z,13.6
2023-06-09T04:40:00.416Z,13.6
2023-06-09T04:41:00.380Z,13.7
2023-06-09T04:42:00.380Z,13.8
2023-06-09T04:43:00.490Z,13.8
2023-06-09T04:44:00.384Z,13.9
2023-06-09T04:45:00.393Z,13.9
2023-06-09T04:46:00.444Z,13.9
2023-06-09T04:47:00.385Z,14
2023-06-09T04:48:00.447Z,14.1
2023-06-09T04:49:00.382Z,14.1
2023-06-09T04:50:00.419Z,14.1
2023-06-09T04:51:00.387Z,14.2
2023-06-09T04:52:00.450Z,14.2
2023-06-09T04:53:00.394Z,14.2
2023-06-09T04:54:00.417Z,14.3
2023-06-09T04:55:00.433Z,14.3
2023-06-09T04:56:00.394Z,14.4
2023-06-09T04:57:00.398Z,14.4
2023-06-09T04:58:00.409Z,14.4
2023-06-09T04:59:00.400Z,14.5
2023-06-09T05:00:00.413Z,14.6
2023-06-09T05:01:00.421Z,14.6
2023-06-09T05:02:00.505Z,14.6
2023-06-09T05:03:00.441Z,14.6
2023-06-09T05:04:00.411Z,14.7
2023-06-09T05:05:00.451Z,14.8
2023-06-09T05:06:00.402Z,14.8
2023-06-09T05:07:00.414Z,14.8
2023-06-09T05:08:00.413Z,14.8
2023-06-09T05:09:00.404Z,14.9
2023-06-09T05:10:00.456Z,14.9
2023-06-09T05:11:00.403Z,14.9
2023-06-09T05:12:00.408Z,14.9
2023-06-09T05:13:00.416Z,15
2023-06-09T05:14:00.424Z,15.1
2023-06-09T05:15:00.407Z,15.1
2023-06-09T05:16:00.517Z,15.1
2023-06-09T05:17:00.417Z,15.1
2023-06-09T05:18:00.433Z,15.1
2023-06-09T05:19:00.433Z,15.2
2023-06-09T05:20:00.421Z,15.2
2023-06-09T05:21:00.412Z,15.2
2023-06-09T05:22:00.428Z,15.2
2023-06-09T05:23:00.423Z,15.3
2023-06-09T05:24:00.438Z,15.3
2023-06-09T05:25:00.420Z,15.3
2023-06-09T05:26:00.420Z,15.4
2023-06-09T05:27:00.419Z,15.4
2023-06-09T05:28:00.425Z,15.4
2023-06-09T05:29:00.441Z,15.4
2023-06-09T05:30:00.442Z,15.4
2023-06-09T05:31:00.434Z,15.5
2023-06-09T05:32:00.569Z,15.5
2023-06-09T05:33:00.504Z,15.6
2023-06-09T05:34:00.425Z,15.6
2023-06-09T05:35:00.433Z,15.6
2023-06-09T05:36:00.447Z,15.6
2023-06-09T05:37:00.443Z,15.7
2023-06-09T05:38:00.441Z,15.7
2023-06-09T05:39:00.448Z,15.8
2023-06-09T05:40:00.457Z,15.8
2023-06-09T05:41:00.447Z,15.8
2023-06-09T05:42:00.461Z,15.8
2023-06-09T05:43:00.444Z,15.9
2023-06-09T05:44:00.448Z,15.9
2023-06-09T05:45:00.469Z,15.9
2023-06-09T05:46:00.521Z,15.9
2023-06-09T05:47:00.446Z,15.9
2023-06-09T05:48:00.601Z,16
2023-06-09T05:49:00.462Z,16
2023-06-09T05:50:00.464Z,16.1
2023-06-09T05:51:00.455Z,16.1
2023-06-09T05:52:00.463Z,16.1
2023-06-09T05:53:00.458Z,16.2
2023-06-09T05:54:00.466Z,16.2
2023-06-09T05:55:00.477Z,16.2
2023-06-09T05:56:00.476Z,16.3
2023-06-09T05:57:00.553Z,16.3
2023-06-09T05:58:00.463Z,16.4
2023-06-09T05:59:00.471Z,16.4
2023-06-09T06:00:00.470Z,16.4
2023-06-09T06:01:00.513Z,16.4
2023-06-09T06:02:00.495Z,16.5
2023-06-09T06:03:00.586Z,16.6
2023-06-09T06:04:00.658Z,16.6
2023-06-09T06:05:00.466Z,16.6
2023-06-09T06:06:00.463Z,16.7
2023-06-09T06:07:00.463Z,16.7
2023-06-09T06:08:00.467Z,16.8
2023-06-09T06:09:00.481Z,16.8
2023-06-09T06:10:00.477Z,16.8
2023-06-09T06:11:00.468Z,16.8
2023-06-09T06:12:00.474Z,16.9
2023-06-09T06:13:00.481Z,16.9
2023-06-09T06:14:00.477Z,17
2023-06-09T06:15:00.478Z,17
2023-06-09T06:16:00.520Z,17.1
2023-06-09T06:17:00.477Z,17.1
2023-06-09T06:18:00.571Z,17.2
2023-06-09T06:19:00.479Z,17.2
2023-06-09T06:20:00.481Z,17.2
2023-06-09T06:21:00.477Z,17.3
2023-06-09T06:22:00.485Z,17.3
2023-06-09T06:23:00.483Z,17.4
2023-06-09T06:24:00.538Z,17.4
2023-06-09T06:25:00.484Z,17.4
2023-06-09T06:26:00.490Z,17.4
2023-06-09T06:27:00.501Z,17.5
2023-06-09T06:28:00.501Z,17.6
2023-06-09T06:29:00.492Z,17.6
2023-06-09T06:30:00.495Z,17.7
2023-06-09T06:31:00.523Z,17.7
2023-06-09T06:32:00.533Z,17.8
2023-06-09T06:33:00.630Z,17.8
2023-06-09T06:34:00.515Z,17.9
2023-06-09T06:35:00.509Z,17.9
2023-06-09T06:36:00.504Z,17.9
2023-06-09T06:37:00.498Z,18
2023-06-09T06:38:00.494Z,18.1
2023-06-09T06:39:00.507Z,18.1
2023-06-09T06:40:00.509Z,18.1
2023-06-09T06:41:00.512Z,18.2
2023-06-09T06:42:00.515Z,18.2
2023-06-09T06:43:00.521Z,18.2
2023-06-09T06:44:00.507Z,18.3
2023-06-09T06:45:00.518Z,18.4
2023-06-09T06:46:00.536Z,18.4
2023-06-09T06:47:00.551Z,18.5
2023-06-09T06:48:00.548Z,18.6
2023-06-09T06:49:00.561Z,18.6
2023-06-09T06:50:00.513Z,18.6
2023-06-09T06:51:00.525Z,18.7
2023-06-09T06:52:00.537Z,18.8
2023-06-09T06:53:00.511Z,18.9
2023-06-09T06:54:00.511Z,18.9
2023-06-09T06:55:00.533Z,18.9
2023-06-09T06:56:00.535Z,19
2023-06-09T06:57:00.513Z,19.1
2023-06-09T06:58:00.525Z,19.1
2023-06-09T06:59:00.528Z,19.2
2023-06-09T07:00:04.353Z,19.2
2023-06-09T07:01:00.595Z,19.3
2023-06-09T07:02:00.532Z,19.4
2023-06-09T07:03:00.599Z,19.4
2023-06-09T07:04:00.604Z,19.4
2023-06-09T07:05:00.530Z,19.5
2023-06-09T07:06:00.533Z,19.6
2023-06-09T07:07:00.539Z,19.6
2023-06-09T07:08:00.532Z,19.7
2023-06-09T07:09:03.077Z,19.8
2023-06-09T07:10:00.536Z,19.8
2023-06-09T07:11:00.552Z,19.8
2023-06-09T07:12:00.537Z,19.9
2023-06-09T07:13:00.537Z,19.9
2023-06-09T07:14:00.567Z,19.9
2023-06-09T07:15:00.536Z,19.9
2023-06-09T07:16:00.589Z,20
2023-06-09T07:17:00.638Z,20.1
2023-06-09T07:18:00.658Z,20.1
2023-06-09T07:19:00.536Z,20.1
2023-06-09T07:20:00.556Z,20.1
2023-06-09T07:21:02.582Z,20.1
2023-06-09T07:22:00.540Z,20.1
2023-06-09T07:23:00.552Z,20.1
2023-06-09T07:24:00.593Z,20.2
2023-06-09T07:25:01.369Z,20.2
2023-06-09T07:26:00.558Z,20.2
2023-06-09T07:27:00.547Z,20.3
2023-06-09T07:28:00.546Z,20.4
2023-06-09T07:29:00.668Z,20.4
2023-06-09T07:30:00.547Z,20.4
2023-06-09T07:31:00.569Z,20.5
2023-06-09T07:32:00.632Z,20.6
2023-06-09T07:33:00.593Z,20.6
2023-06-09T07:34:00.550Z,20.6
2023-06-09T07:35:00.617Z,20.7
2023-06-09T07:36:00.556Z,20.7
2023-06-09T07:37:00.603Z,20.8
2023-06-09T07:38:00.585Z,20.9
2023-06-09T07:39:00.561Z,20.9
2023-06-09T07:40:14.093Z,21
2023-06-09T07:41:00.580Z,21.1
2023-06-09T07:42:00.562Z,21.1
2023-06-09T07:43:00.582Z,21.2
2023-06-09T07:46:00.853Z,21.4
2023-06-09T07:47:00.838Z,21.5
2023-06-09T07:48:00.856Z,21.6
2023-06-09T07:49:00.811Z,21.6
2023-06-09T07:50:00.827Z,21.6
2023-06-09T07:51:02.233Z,21.7
2023-06-09T07:52:07.988Z,21.7
2023-06-09T07:53:00.831Z,21.7
2023-06-09T07:54:00.821Z,21.8
2023-06-09T07:55:00.836Z,21.8
2023-06-09T07:56:00.830Z,21.9
2023-06-09T07:57:00.823Z,22
2023-06-09T07:58:00.829Z,22.1
2023-06-09T07:59:00.832Z,22.1
2023-06-09T08:00:00.869Z,22.2
2023-06-09T08:01:00.843Z,22.2
2023-06-09T08:02:00.848Z,22.4
2023-06-09T08:03:00.899Z,22.4
2023-06-09T08:04:00.963Z,22.4
2023-06-09T08:05:00.901Z,22.6
2023-06-09T08:06:00.856Z,22.6
2023-06-09T08:07:00.841Z,22.6
2023-06-09T08:08:00.852Z,22.6
2023-06-09T08:09:00.854Z,22.7
2023-06-09T08:10:00.901Z,22.8
2023-06-09T08:11:01.330Z,22.9
2023-06-09T08:12:00.842Z,22.9
2023-06-09T08:13:00.844Z,23
2023-06-09T08:14:00.850Z,23.1
2023-06-09T08:15:00.845Z,23.1
2023-06-09T08:16:00.900Z,23.2
2023-06-09T08:17:00.859Z,23.2
2023-06-09T08:18:00.932Z,23.3
2023-06-09T08:19:00.858Z,23.4
2023-06-09T08:20:00.869Z,23.4
2023-06-09T08:21:00.872Z,23.5
2023-06-09T08:22:00.852Z,23.6
2023-06-09T08:23:00.857Z,23.6
2023-06-09T08:24:00.958Z,23.7
2023-06-09T08:25:00.900Z,23.7
2023-06-09T08:26:00.857Z,23.8
2023-06-09T08:27:00.901Z,23.8
2023-06-09T08:28:00.860Z,23.9
2023-06-09T08:29:00.864Z,23.8
2023-06-09T08:30:00.854Z,23.9
2023-06-09T08:31:00.790Z,23.9
2023-06-09T08:32:00.978Z,24
2023-06-09T08:33:00.769Z,24.1
2023-06-09T08:34:00.704Z,24.1
2023-06-09T08:35:00.699Z,24.1
2023-06-09T08:36:00.650Z,24.2
2023-06-09T08:37:00.625Z,24.2
2023-06-09T08:38:00.602Z,24.2
2023-06-09T08:39:00.579Z,24.3
2023-06-09T08:40:00.569Z,24.5
2023-06-09T08:41:00.510Z,24.6
2023-06-09T08:42:00.469Z,24.6
2023-06-09T08:43:00.446Z,24.6
2023-06-09T08:44:00.434Z,24.6
2023-06-09T08:45:02.144Z,24.7
2023-06-09T08:46:00.493Z,24.7
2023-06-09T08:47:00.447Z,24.7
2023-06-09T08:48:00.530Z,24.8
2023-06-09T08:49:00.439Z,24.8
2023-06-09T08:50:00.450Z,24.9
2023-06-09T08:51:00.471Z,25
2023-06-09T08:52:00.448Z,25.1
2023-06-09T08:53:00.445Z,25.1
2023-06-09T08:54:00.444Z,25.2
2023-06-09T08:55:00.463Z,25.3
2023-06-09T08:56:00.464Z,25.4
2023-06-09T08:57:00.460Z,25.4
2023-06-09T08:58:00.451Z,25.5
2023-06-09T08:59:00.463Z,25.4
2023-06-09T09:00:00.492Z,25.4
2023-06-09T09:01:00.500Z,25.4
2023-06-09T09:02:00.479Z,25.5
2023-06-09T09:03:00.515Z,25.5
2023-06-09T09:04:01.864Z,25.5
2023-06-09T09:05:00.472Z,25.6
2023-06-09T09:06:00.483Z,25.7
2023-06-09T09:07:00.475Z,25.8
2023-06-09T09:08:00.459Z,25.8
2023-06-09T09:09:00.466Z,25.9
2023-06-09T09:10:00.478Z,25.9
2023-06-09T09:11:00.481Z,26
2023-06-09T09:12:00.467Z,26.1
2023-06-09T09:13:00.501Z,26.1
2023-06-09T09:14:00.491Z,26.1
2023-06-09T09:15:00.480Z,26.1
2023-06-09T09:16:00.509Z,26.1
2023-06-09T09:17:00.470Z,26.2
2023-06-09T09:18:00.526Z,26.2
2023-06-09T09:19:00.485Z,26.3
2023-06-09T09:20:00.481Z,26.3
2023-06-09T09:21:00.524Z,26.3
2023-06-09T09:22:00.508Z,26.4
2023-06-09T09:23:00.473Z,26.4
2023-06-09T09:24:00.525Z,26.4
2023-06-09T09:25:00.495Z,26.4
2023-06-09T09:26:00.514Z,26.4
2023-06-09T09:27:00.498Z,26.6
2023-06-09T09:28:00.482Z,26.6
2023-06-09T09:29:00.478Z,26.6
2023-06-09T09:30:00.490Z,26.7
2023-06-09T09:31:00.543Z,26.8
2023-06-09T09:32:00.480Z,26.8
2023-06-09T09:33:00.539Z,26.9
2023-06-09T09:34:00.488Z,26.9
2023-06-09T09:35:00.518Z,26.9
2023-06-09T09:36:00.487Z,26.9
2023-06-09T09:37:00.496Z,27
2023-06-09T09:38:02.237Z,27
2023-06-09T09:39:00.490Z,27.1
2023-06-09T09:40:00.508Z,27.1
2023-06-09T09:41:00.541Z,27
2023-06-09T09:42:00.507Z,27
2023-06-09T09:43:00.493Z,27.1
2023-06-09T09:44:00.547Z,27.2
2023-06-09T09:45:00.524Z,27.2
2023-06-09T09:46:00.505Z,27.2
2023-06-09T09:47:00.571Z,27.3
2023-06-09T09:48:00.585Z,27.3
2023-06-09T09:49:00.503Z,27.4
2023-06-09T09:50:00.521Z,27.4
2023-06-09T09:51:00.521Z,27.3
2023-06-09T09:52:00.503Z,27.2
2023-06-09T09:53:00.506Z,27.2
2023-06-09T09:54:00.503Z,27.2
2023-06-09T09:55:00.544Z,27.2
2023-06-09T09:56:00.534Z,27.2
2023-06-09T09:57:00.515Z,27.3
2023-06-09T09:58:00.526Z,27.3
2023-06-09T09:59:00.504Z,27.3
2023-06-09T10:00:00.523Z,27.2
2023-06-09T10:01:00.623Z,27.2
2023-06-09T10:02:00.544Z,27.2
2023-06-09T10:03:00.590Z,27.2
2023-06-09T10:04:00.584Z,27.2
2023-06-09T10:05:00.524Z,27.4
2023-06-09T10:06:00.514Z,27.3
2023-06-09T10:07:00.518Z,27.3
2023-06-09T10:08:00.517Z,27.3
2023-06-09T10:09:00.542Z,27.3
2023-06-09T10:10:00.545Z,27.4
2023-06-09T10:11:00.527Z,27.5
2023-06-09T10:12:00.548Z,27.5
2023-06-09T10:13:00.523Z,27.4
2023-06-09T10:14:00.561Z,27.6
2023-06-09T10:15:00.539Z,27.6
2023-06-09T10:16:00.556Z,27.7
2023-06-09T10:17:00.622Z,27.8
2023-06-09T10:18:00.592Z,27.9
2023-06-09T10:19:00.537Z,27.9
2023-06-09T10:20:00.553Z,28
2023-06-09T10:21:00.552Z,28
2023-06-09T10:22:00.525Z,28
2023-06-09T10:23:00.555Z,28
2023-06-09T10:24:00.571Z,28
2023-06-09T10:25:00.553Z,28
2023-06-09T10:26:00.542Z,28
2023-06-09T10:27:00.550Z,28
2023-06-09T10:28:00.552Z,28.1
2023-06-09T10:29:00.550Z,28.1
2023-06-09T10:30:00.567Z,28.2
2023-06-09T10:31:00.551Z,28.2
2023-06-09T10:32:00.593Z,28.2
2023-06-09T10:33:00.668Z,28.3
2023-06-09T10:34:00.550Z,28.4
2023-06-09T10:35:00.584Z,28.4
2023-06-09T10:36:00.630Z,28.3
2023-06-09T10:37:00.559Z,28.2
2023-06-09T10:38:00.548Z,28.1
2023-06-09T10:39:00.579Z,28.2
2023-06-09T10:40:00.596Z,28.2
2023-06-09T10:41:00.569Z,28.2
2023-06-09T10:42:00.796Z,28.2
2023-06-09T10:43:00.568Z,28.3
2023-06-09T10:44:00.571Z,28.3
2023-06-09T10:45:00.680Z,28.3
2023-06-09T10:46:00.608Z,28.4
2023-06-09T10:47:00.646Z,28.5
2023-06-09T10:48:00.599Z,28.5
2023-06-09T10:49:00.572Z,28.6
2023-06-09T10:50:00.582Z,28.6
2023-06-09T10:51:00.585Z,28.5
2023-06-09T10:52:00.575Z,28.4
2023-06-09T10:53:00.573Z,28.2
2023-06-09T10:54:00.576Z,28.2
2023-06-09T10:55:00.591Z,28.2
2023-06-09T10:56:00.573Z,28.1
2023-06-09T10:57:00.581Z,28.2
2023-06-09T10:58:00.579Z,28.2
2023-06-09T10:59:00.581Z,28.3
2023-06-09T11:00:00.634Z,28.5
2023-06-09T11:01:00.585Z,28.6
2023-06-09T11:02:00.811Z,28.6
2023-06-09T11:03:00.635Z,28.6
2023-06-09T11:04:00.656Z,28.6
2023-06-09T11:05:00.608Z,28.6
2023-06-09T11:06:00.605Z,28.7
2023-06-09T11:07:00.598Z,28.7
2023-06-09T11:08:00.626Z,28.7
2023-06-09T11:09:00.616Z,28.8
2023-06-09T11:10:00.717Z,28.8
2023-06-09T11:11:00.585Z,28.8
2023-06-09T11:12:00.604Z,28.9
2023-06-09T11:13:00.600Z,29
2023-06-09T11:14:00.617Z,29.1
2023-06-09T11:15:05.173Z,29.2
2023-06-09T11:16:00.621Z,29.2
2023-06-09T11:17:00.598Z,29.2
2023-06-09T11:18:00.744Z,29.2
2023-06-09T11:19:00.637Z,29.2
2023-06-09T11:20:00.613Z,29.3
2023-06-09T11:21:00.613Z,29.4
2023-06-09T11:22:00.610Z,29.5
2023-06-09T11:23:00.615Z,29.6
2023-06-09T11:24:00.645Z,29.6
2023-06-09T11:25:00.646Z,29.8
2023-06-09T11:26:00.623Z,29.8
2023-06-09T11:27:00.624Z,29.9
2023-06-09T11:28:00.633Z,29.9
2023-06-09T11:29:00.620Z,29.8
2023-06-09T11:30:00.672Z,29.9
2023-06-09T11:31:00.614Z,29.9
2023-06-09T11:32:00.658Z,30
2023-06-09T11:33:00.669Z,30
2023-06-09T11:34:00.618Z,30.1
2023-06-09T11:35:00.644Z,30.1
2023-06-09T11:36:00.622Z,30.2
2023-06-09T11:37:00.638Z,30.2
2023-06-09T11:38:00.664Z,30.3
2023-06-09T11:39:00.629Z,30.3
2023-06-09T11:40:00.691Z,30.2
2023-06-09T11:41:00.714Z,30.2
2023-06-09T11:42:00.651Z,30.3
2023-06-09T11:43:00.626Z,30.3
2023-06-09T11:44:00.623Z,30.3
2023-06-09T11:45:00.632Z,30.2
2023-06-09T11:46:00.678Z,30.2
2023-06-09T11:47:00.622Z,30.2
2023-06-09T11:48:00.856Z,30.2
2023-06-09T11:49:00.627Z,30.3
2023-06-09T11:50:00.674Z,30.3
2023-06-09T11:51:00.635Z,30.4
2023-06-09T11:52:00.634Z,30.4
2023-06-09T11:53:00.627Z,30.4
2023-06-09T11:54:00.645Z,30.4
2023-06-09T11:55:00.634Z,30.5
2023-06-09T11:56:00.635Z,30.4
2023-06-09T11:57:00.640Z,30.4
2023-06-09T11:58:00.630Z,30.4
2023-06-09T11:59:00.636Z,30.4
2023-06-09T12:00:00.667Z,30.4
2023-06-09T12:01:00.648Z,30.4
2023-06-09T12:02:00.693Z,30.4
2023-06-09T12:03:00.801Z,30.4
2023-06-09T12:04:00.653Z,30.4
2023-06-09T12:05:00.772Z,30.4
2023-06-09T12:06:00.676Z,30.4
2023-06-09T12:07:00.657Z,30.5
2023-06-09T12:08:00.651Z,30.6
2023-06-09T12:09:00.654Z,30.7
2023-06-09T12:10:00.707Z,30.8
2023-06-09T12:11:00.663Z,30.8
2023-06-09T12:12:00.653Z,30.9
2023-06-09T12:13:00.681Z,30.8
2023-06-09T12:14:00.664Z,30.9
2023-06-09T12:15:00.708Z,30.9
2023-06-09T12:16:00.649Z,31.1
2023-06-09T12:17:00.692Z,31.1
2023-06-09T12:18:00.703Z,31.1
2023-06-09T12:19:00.656Z,31.2
2023-06-09T12:20:00.693Z,31.1
2023-06-09T12:21:00.692Z,31
2023-06-09T12:22:00.697Z,30.9
2023-06-09T12:23:04.016Z,30.8
2023-06-09T12:24:00.733Z,30.9
2023-06-09T12:25:00.703Z,30.9
2023-06-09T12:26:00.662Z,30.9
2023-06-09T12:27:00.664Z,30.8
2023-06-09T12:28:00.660Z,30.8
2023-06-09T12:29:00.677Z,30.8
2023-06-09T12:30:00.683Z,30.8
2023-06-09T12:31:00.679Z,30.8
2023-06-09T12:32:00.714Z,30.8
2023-06-09T12:33:00.802Z,30.9
2023-06-09T12:34:00.771Z,30.9
2023-06-09T12:35:00.678Z,30.9
2023-06-09T12:36:00.687Z,30.9
2023-06-09T12:37:00.727Z,30.8
2023-06-09T12:38:00.682Z,30.6
2023-06-09T12:39:00.695Z,30.5
2023-06-09T12:40:00.702Z,30.4
2023-06-09T12:41:00.696Z,30.3
2023-06-09T12:42:00.686Z,30.2
2023-06-09T12:43:00.681Z,30.3
2023-06-09T12:44:00.742Z,30.4
2023-06-09T12:45:00.709Z,30.4
2023-06-09T12:46:00.694Z,30.4
2023-06-09T12:47:00.705Z,30.5
2023-06-09T12:48:00.845Z,30.6
2023-06-09T12:49:00.692Z,30.6
2023-06-09T12:50:00.723Z,30.7
2023-06-09T12:51:00.709Z,30.8
2023-06-09T12:52:00.699Z,30.8
2023-06-09T12:53:00.697Z,30.9
2023-06-09T12:54:00.711Z,30.9
2023-06-09T12:55:10.877Z,30.9
2023-06-09T12:56:00.711Z,30.9
2023-06-09T12:57:00.706Z,30.9
2023-06-09T12:58:00.697Z,30.9
2023-06-09T12:59:00.705Z,30.9
2023-06-09T13:00:15.504Z,31.1
2023-06-09T13:01:00.765Z,31.1
2023-06-09T13:02:00.764Z,31.1
2023-06-09T13:03:03.322Z,31.1
2023-06-09T13:04:00.874Z,31.1
2023-06-09T13:05:00.718Z,31.1
2023-06-09T13:06:00.707Z,31.1
2023-06-09T13:07:00.710Z,31.1
2023-06-09T13:08:00.733Z,31.2
2023-06-09T13:09:00.704Z,31.2
2023-06-09T13:10:00.726Z,31.2
2023-06-09T13:11:00.710Z,31.3
2023-06-09T13:12:00.712Z,31.4
2023-06-09T13:13:00.731Z,31.4
2023-06-09T13:14:00.711Z,31.5
2023-06-09T13:15:00.751Z,31.5
2023-06-09T13:16:00.705Z,31.6
2023-06-09T13:17:00.787Z,31.6
2023-06-09T13:18:00.799Z,31.6
2023-06-09T13:19:00.734Z,31.6
2023-06-09T13:20:00.832Z,31.8
2023-06-09T13:21:00.752Z,31.8
2023-06-09T13:22:00.740Z,31.9
2023-06-09T13:23:00.725Z,31.9
2023-06-09T13:24:00.773Z,31.9
2023-06-09T13:25:00.735Z,32
2023-06-09T13:26:00.746Z,32
2023-06-09T13:27:00.817Z,31.9
2023-06-09T13:28:00.753Z,31.9